createdAt,value
2019-01-03T00:00:04.722Z,58.30
2019-01-03T00:02:56.180Z,58.07
2019-01-03T00:04:21.179Z,57.81
2019-01-03T00:05:15.190Z,58.15
2019-01-03T00:06:02.882Z,58.34
2019-01-03T00:06:51.641Z,58.02
2019-01-03T00:09:49.120Z,58.12
2019-01-03T00:10:40.933Z,58.07
2019-01-03T00:12:30.185Z,58.20
2019-01-03T00:13:21.655Z,58.12
2019-01-03T00:14:28.543Z,58.56
2019-01-03T00:16:26.119Z,58.50
2019-01-03T00:18:15.381Z,58.59
2019-01-03T00:21:06.833Z,58.52
2019-01-03T00:23:58.293Z,58.65
2019-01-03T00:24:51.017Z,58.68
2019-01-03T00:26:37.634Z,58.75
2019-01-03T00:28:35.731Z,58.88
2019-01-03T00:29:18.764Z,59.18
2019-01-03T00:32:11.729Z,59.14
2019-01-03T00:33:00.832Z,59.18
2019-01-03T00:33:54.688Z,59.18
2019-01-03T00:35:43.219Z,59.26
2019-01-03T00:36:32.147Z,59.31
2019-01-03T00:37:23.750Z,59.31
2019-01-03T00:40:14.899Z,59.38
2019-01-03T00:41:21.591Z,59.24
2019-01-03T00:42:10.507Z,59.45
2019-01-03T00:43:00.241Z,59.82
2019-01-03T00:43:51.975Z,59.72
2019-01-03T00:44:40.845Z,59.89
2019-01-03T00:46:30.060Z,59.78
2019-01-03T00:48:17.140Z,59.77
2019-01-03T00:49:05.822Z,59.66
2019-01-03T00:50:53.188Z,59.52
2019-01-03T00:52:42.682Z,59.88
2019-01-03T00:53:34.311Z,60.00
2019-01-03T00:54:38.083Z,59.84
2019-01-03T00:55:26.836Z,59.77
2019-01-03T00:56:19.602Z,59.53
2019-01-03T00:57:08.351Z,59.86
2019-01-03T01:00:05.341Z,59.85
2019-01-03T01:02:59.693Z,60.09
2019-01-03T01:04:48.670Z,59.78
2019-01-03T01:05:37.561Z,60.26
2019-01-03T01:06:26.334Z,60.37
2019-01-03T01:07:15.157Z,60.20
2019-01-03T01:08:03.800Z,60.04
2019-01-03T01:08:52.657Z,60.03
2019-01-03T01:10:47.133Z,60.25
2019-01-03T01:13:38.136Z,60.17
2019-01-03T01:14:26.983Z,60.11
2019-01-03T01:15:15.749Z,60.04
2019-01-03T01:16:38.776Z,60.16
2019-01-03T01:17:30.286Z,60.24
2019-01-03T01:18:25.961Z,60.44
2019-01-03T01:19:31.794Z,60.48
2019-01-03T01:21:18.280Z,60.23
2019-01-03T01:22:07.847Z,60.30
2019-01-03T01:22:57.379Z,60.43
2019-01-03T01:23:45.145Z,60.28
2019-01-03T01:25:04.060Z,60.55
2019-01-03T01:25:53.673Z,60.70
2019-01-03T01:26:42.406Z,60.56
2019-01-03T01:27:31.498Z,60.69
2019-01-03T01:28:20.366Z,60.51
2019-01-03T01:29:09.086Z,60.65
2019-01-03T01:42:52.577Z,60.92
2019-01-03T01:44:15.605Z,62.63
2019-01-03T01:45:04.851Z,62.64
2019-01-03T01:46:10.365Z,63.02
2019-01-03T01:47:32.486Z,62.92
2019-01-03T01:48:22.217Z,62.90
2019-01-03T01:49:11.097Z,63.07
2019-01-03T01:50:01.622Z,63.19
2019-01-03T01:50:50.372Z,63.12
2019-01-03T01:51:42.934Z,63.17
2019-01-03T01:52:32.220Z,63.06
2019-01-03T01:53:23.740Z,63.20
2019-01-03T01:55:14.926Z,63.37
2019-01-03T01:56:04.838Z,63.56
2019-01-03T01:58:58.002Z,63.44
2019-01-03T02:00:17.063Z,63.02
2019-01-03T02:01:13.683Z,63.17
2019-01-03T02:02:04.210Z,63.57
2019-01-03T02:02:54.934Z,63.35
2019-01-03T02:05:46.424Z,63.65
2019-01-03T02:07:39.823Z,63.66
2019-01-03T02:08:28.543Z,63.77
2019-01-03T02:09:18.395Z,63.88
2019-01-03T02:10:17.069Z,64.10
2019-01-03T02:11:05.904Z,63.92
2019-01-03T02:11:59.402Z,64.19
2019-01-03T02:12:47.118Z,64.20
2019-01-03T02:13:44.868Z,64.28
2019-01-03T02:14:34.636Z,64.34
2019-01-03T02:15:37.266Z,64.03
2019-01-03T02:17:24.092Z,64.36
2019-01-03T02:18:42.134Z,64.18
2019-01-03T02:19:29.919Z,63.74
2019-01-03T02:20:25.561Z,63.94
2019-01-03T02:21:14.394Z,63.81
2019-01-03T02:22:05.970Z,63.62
2019-01-03T02:23:53.323Z,63.64
2019-01-03T02:24:42.187Z,63.57
2019-01-03T02:25:31.803Z,63.79
2019-01-03T02:26:20.759Z,63.89
2019-01-03T02:27:10.234Z,63.72
2019-01-03T02:30:01.430Z,63.61
2019-01-03T02:30:52.846Z,63.95
2019-01-03T02:32:44.581Z,63.59
2019-01-03T02:33:33.481Z,63.62
2019-01-03T02:34:47.571Z,63.73
2019-01-03T02:35:36.430Z,63.88
2019-01-03T02:36:25.448Z,63.57
2019-01-03T02:37:13.226Z,63.68
2019-01-03T02:38:02.899Z,63.76
2019-01-03T02:38:51.715Z,64.08
2019-01-03T02:39:41.032Z,63.64
2019-01-03T02:40:30.533Z,63.81
2019-01-03T02:41:19.996Z,64.14
2019-01-03T02:44:11.973Z,63.80
2019-01-03T02:45:04.728Z,63.49
2019-01-03T02:47:59.886Z,63.87
2019-01-03T02:50:53.113Z,63.81
2019-01-03T02:52:41.513Z,64.01
2019-01-03T02:55:34.960Z,63.87
2019-01-03T02:58:26.246Z,64.13
2019-01-03T03:01:17.567Z,63.92
2019-01-03T03:02:06.452Z,63.84
2019-01-03T03:05:03.792Z,63.92
2019-01-03T03:06:50.086Z,63.77
2019-01-03T03:09:41.219Z,63.91
2019-01-03T03:10:30.036Z,63.73
2019-01-03T03:12:17.015Z,63.68
2019-01-03T03:13:11.721Z,64.06
2019-01-03T03:14:33.898Z,64.17
2019-01-03T03:15:22.670Z,64.20
2019-01-03T03:17:09.298Z,64.17
2019-01-03T03:18:04.048Z,63.98
2019-01-03T03:18:51.855Z,63.55
2019-01-03T03:19:43.725Z,63.51
2019-01-03T03:22:38.825Z,63.74
2019-01-03T03:23:31.554Z,63.74
2019-01-03T03:24:20.528Z,63.68
2019-01-03T03:25:09.620Z,63.88
2019-01-03T03:26:00.434Z,64.05
2019-01-03T03:26:51.138Z,63.60
2019-01-03T03:27:48.815Z,63.46
2019-01-03T03:29:37.188Z,63.43
2019-01-03T03:30:26.021Z,63.62
2019-01-03T03:32:18.605Z,63.25
2019-01-03T03:33:13.232Z,63.42
2019-01-03T03:34:06.848Z,63.58
2019-01-03T03:36:58.945Z,63.08
2019-01-03T03:37:47.881Z,63.45
2019-01-03T03:38:36.838Z,63.45
2019-01-03T03:39:25.855Z,63.76
2019-01-03T03:40:17.487Z,63.69
2019-01-03T03:41:06.485Z,63.25
2019-01-03T03:41:55.345Z,63.48
2019-01-03T03:42:44.251Z,63.36
2019-01-03T03:43:51.282Z,63.31
2019-01-03T03:44:43.855Z,63.31
2019-01-03T03:47:37.788Z,63.32
2019-01-03T03:48:32.454Z,63.27
2019-01-03T03:50:22.644Z,62.85
2019-01-03T03:51:17.245Z,62.97
2019-01-03T03:52:37.111Z,63.13
2019-01-03T03:54:24.536Z,63.11
2019-01-03T03:55:13.371Z,63.09
2019-01-03T03:58:04.501Z,63.40
2019-01-03T03:59:51.763Z,63.19
2019-01-03T04:00:40.545Z,63.43
2019-01-03T04:01:29.479Z,63.23
2019-01-03T04:03:21.721Z,63.31
2019-01-03T04:04:14.456Z,63.41
2019-01-03T04:05:34.613Z,63.19
2019-01-03T04:06:23.370Z,63.03
2019-01-03T04:08:12.264Z,63.18
2019-01-03T04:11:04.338Z,63.13
2019-01-03T04:11:53.211Z,62.87
2019-01-03T04:12:48.885Z,63.13
2019-01-03T04:14:13.861Z,63.13
2019-01-03T04:15:01.609Z,62.83
2019-01-03T04:15:50.476Z,63.16
2019-01-03T04:16:40.149Z,62.78
2019-01-03T04:17:36.927Z,63.26
2019-01-03T04:18:31.655Z,63.13
2019-01-03T04:19:20.436Z,62.97
2019-01-03T04:20:08.416Z,62.67
2019-01-03T04:21:27.395Z,62.90
2019-01-03T04:22:16.043Z,62.57
2019-01-03T04:23:08.785Z,62.41
2019-01-03T04:23:57.687Z,62.39
2019-01-03T04:24:46.520Z,62.32
2019-01-03T04:25:35.445Z,62.30
2019-01-03T04:27:23.961Z,62.20
2019-01-03T04:29:10.616Z,62.12
2019-01-03T04:29:59.612Z,62.20
2019-01-03T04:30:52.291Z,62.03
2019-01-03T04:31:41.234Z,62.07
2019-01-03T04:32:30.276Z,62.56
2019-01-03T04:33:20.074Z,62.15
2019-01-03T04:34:13.621Z,62.15
2019-01-03T04:35:05.315Z,62.17
2019-01-03T04:36:28.283Z,61.80
2019-01-03T04:37:27.021Z,62.32
2019-01-03T04:38:15.798Z,62.10
2019-01-03T04:39:08.487Z,62.02
2019-01-03T04:41:59.568Z,61.75
2019-01-03T04:42:48.388Z,62.11
2019-01-03T04:43:40.198Z,61.99
2019-01-03T04:44:30.761Z,62.29
2019-01-03T04:45:27.309Z,62.56
2019-01-03T04:46:15.032Z,62.76
2019-01-03T04:47:11.853Z,62.85
2019-01-03T04:48:04.373Z,62.85
2019-01-03T04:49:01.114Z,62.67
2019-01-03T04:49:53.873Z,62.78
2019-01-03T04:50:43.398Z,62.88
2019-01-03T04:51:35.078Z,62.83
2019-01-03T04:53:29.541Z,63.08
2019-01-03T04:54:18.423Z,63.25
2019-01-03T04:55:07.382Z,62.89
2019-01-03T04:58:00.192Z,62.76
2019-01-03T04:59:05.070Z,63.08
2019-01-03T04:59:54.056Z,63.30
2019-01-03T05:01:19.147Z,63.51
2019-01-03T05:02:07.941Z,63.38
2019-01-03T05:04:21.325Z,63.67
2019-01-03T05:05:21.428Z,63.54
2019-01-03T05:07:07.945Z,63.49
2019-01-03T05:08:57.384Z,63.95
2019-01-03T05:10:01.248Z,64.11
2019-01-03T05:10:50.178Z,64.30
2019-01-03T05:11:41.810Z,64.37
2019-01-03T05:12:36.915Z,64.22
2019-01-03T05:13:41.805Z,64.09
2019-01-03T05:14:39.515Z,64.55
2019-01-03T05:15:28.333Z,64.28
2019-01-03T05:16:17.196Z,64.58
2019-01-03T05:17:08.849Z,64.39
2019-01-03T05:19:01.463Z,64.37
2019-01-03T05:19:52.086Z,64.38
2019-01-03T05:20:41.003Z,64.50
2019-01-03T05:21:29.831Z,64.45
2019-01-03T05:22:17.605Z,64.14
2019-01-03T05:23:09.158Z,64.35
2019-01-03T05:23:57.743Z,64.36
2019-01-03T05:24:52.848Z,64.11
2019-01-03T05:25:41.585Z,64.12
2019-01-03T05:26:31.295Z,63.96
2019-01-03T05:28:25.580Z,64.08
2019-01-03T05:29:14.266Z,63.98
2019-01-03T05:30:18.202Z,63.95
2019-01-03T05:31:01.962Z,63.91
2019-01-03T05:33:55.453Z,64.06
2019-01-03T05:34:50.126Z,63.83
2019-01-03T05:37:41.501Z,63.91
2019-01-03T05:38:30.472Z,63.92
2019-01-03T05:39:19.394Z,64.05
2019-01-03T05:41:15.024Z,64.53
2019-01-03T05:42:03.763Z,64.29
2019-01-03T05:43:26.988Z,64.53
2019-01-03T05:45:14.488Z,64.45
2019-01-03T05:46:03.452Z,64.15
2019-01-03T05:47:00.232Z,64.33
2019-01-03T05:47:53.897Z,64.65
2019-01-03T05:48:48.572Z,65.02
2019-01-03T05:49:42.213Z,64.33
2019-01-03T05:50:30.042Z,64.63
2019-01-03T05:51:18.776Z,64.36
2019-01-03T05:52:06.517Z,64.59
2019-01-03T05:53:59.212Z,64.41
2019-01-03T05:54:48.063Z,64.50
2019-01-03T05:57:41.338Z,64.16
2019-01-03T05:58:30.091Z,64.13
2019-01-03T06:00:16.702Z,64.35
2019-01-03T06:01:14.431Z,64.29
2019-01-03T06:02:03.345Z,64.45
2019-01-03T06:02:52.285Z,64.52
2019-01-03T06:04:44.763Z,64.58
2019-01-03T06:05:36.507Z,64.49
2019-01-03T06:06:26.252Z,64.65
2019-01-03T06:07:14.744Z,64.70
2019-01-03T06:09:06.284Z,64.57
2019-01-03T06:10:00.941Z,64.40
2019-01-03T06:10:49.677Z,64.27
2019-01-03T06:11:40.341Z,64.29
2019-01-03T06:14:31.820Z,64.12
2019-01-03T06:15:19.572Z,63.95
2019-01-03T06:16:08.513Z,64.15
2019-01-03T06:18:00.157Z,63.99
2019-01-03T06:18:48.922Z,64.03
2019-01-03T06:19:38.376Z,63.49
2019-01-03T06:20:27.290Z,63.96
2019-01-03T06:21:51.360Z,63.73
2019-01-03T06:22:41.937Z,63.41
2019-01-03T06:24:33.280Z,63.84
2019-01-03T06:26:19.775Z,63.61
2019-01-03T06:27:14.229Z,63.50
2019-01-03T06:29:05.755Z,63.86
2019-01-03T06:32:00.863Z,63.78
2019-01-03T06:33:25.069Z,63.77
2019-01-03T06:34:29.864Z,63.93
2019-01-03T06:35:21.466Z,64.08
2019-01-03T06:37:08.047Z,64.13
2019-01-03T06:37:56.618Z,63.78
2019-01-03T06:38:45.342Z,63.70
2019-01-03T06:41:39.120Z,64.09
2019-01-03T06:43:32.566Z,63.69
2019-01-03T06:44:41.359Z,63.88
2019-01-03T06:45:46.071Z,63.84
2019-01-03T06:46:51.888Z,63.68
2019-01-03T06:47:47.597Z,63.81
2019-01-03T06:48:35.333Z,63.81
2019-01-03T06:49:24.010Z,64.14
2019-01-03T06:50:13.273Z,63.83
2019-01-03T06:51:11.062Z,63.91
2019-01-03T06:52:01.917Z,63.75
2019-01-03T06:52:50.759Z,63.74
2019-01-03T06:53:39.477Z,63.86
2019-01-03T06:54:45.279Z,64.00
2019-01-03T06:55:34.193Z,63.62
2019-01-03T06:56:22.983Z,63.35
2019-01-03T06:59:15.325Z,63.35
2019-01-03T07:00:04.935Z,63.51
2019-01-03T07:00:53.664Z,63.35
2019-01-03T07:01:42.369Z,63.49
2019-01-03T07:02:31.000Z,63.33
2019-01-03T07:03:19.807Z,63.25
2019-01-03T07:04:15.545Z,63.36
2019-01-03T07:05:18.212Z,63.64
2019-01-03T07:07:05.608Z,63.43
2019-01-03T07:07:54.549Z,63.79
2019-01-03T07:08:44.149Z,63.85
2019-01-03T07:09:34.714Z,64.00
2019-01-03T07:10:23.962Z,64.09
2019-01-03T07:11:14.519Z,64.12
2019-01-03T07:12:03.317Z,64.19
2019-01-03T07:12:57.032Z,63.75
2019-01-03T07:13:51.870Z,63.84
2019-01-03T07:15:12.024Z,64.10
2019-01-03T07:16:07.623Z,64.13
2019-01-03T07:17:04.220Z,64.00
2019-01-03T07:17:52.976Z,64.16
2019-01-03T07:18:40.711Z,64.03
2019-01-03T07:20:30.211Z,64.05
2019-01-03T07:21:18.935Z,63.79
2019-01-03T07:22:07.853Z,63.96
2019-01-03T07:25:01.431Z,63.77
2019-01-03T07:25:50.353Z,63.99
2019-01-03T07:26:37.856Z,63.88
2019-01-03T07:27:46.729Z,63.97
2019-01-03T07:28:35.582Z,63.58
2019-01-03T07:30:23.951Z,63.72
2019-01-03T07:31:16.690Z,63.80
2019-01-03T07:32:05.485Z,63.86
2019-01-03T07:32:54.398Z,64.12
2019-01-03T07:33:47.068Z,64.06
2019-01-03T07:34:50.841Z,64.27
2019-01-03T07:35:41.486Z,63.74
2019-01-03T07:36:34.198Z,63.80
2019-01-03T07:37:23.245Z,63.98
2019-01-03T07:38:12.114Z,64.01
2019-01-03T07:39:00.970Z,63.61
2019-01-03T07:39:49.879Z,63.48
2019-01-03T07:42:43.390Z,63.53
2019-01-03T07:44:36.817Z,63.58
2019-01-03T07:45:25.527Z,63.66
2019-01-03T07:46:14.456Z,63.77
2019-01-03T07:47:37.468Z,63.59
2019-01-03T07:50:29.433Z,63.62
2019-01-03T07:51:17.210Z,63.75
2019-01-03T07:52:08.976Z,63.91
2019-01-03T07:52:57.774Z,63.71
2019-01-03T07:53:51.436Z,63.79
2019-01-03T07:56:47.604Z,63.53
2019-01-03T07:58:34.839Z,63.11
2019-01-03T07:59:57.931Z,63.62
2019-01-03T08:00:46.797Z,63.49
2019-01-03T08:01:51.658Z,63.53
2019-01-03T08:02:40.491Z,63.47
2019-01-03T08:03:29.471Z,63.42
2019-01-03T08:04:38.478Z,63.55
2019-01-03T08:06:24.719Z,63.55
2019-01-03T08:07:49.927Z,63.55
2019-01-03T08:08:38.852Z,63.49
2019-01-03T08:09:31.585Z,63.32
2019-01-03T08:11:17.874Z,63.45
2019-01-03T08:12:14.461Z,63.52
2019-01-03T08:13:36.514Z,63.41
2019-01-03T08:14:28.233Z,63.51
2019-01-03T08:15:18.953Z,63.48
2019-01-03T08:16:07.774Z,63.29
2019-01-03T08:16:56.554Z,63.26
2019-01-03T08:18:46.052Z,62.96
2019-01-03T08:19:34.893Z,62.98
2019-01-03T08:22:28.090Z,63.22
2019-01-03T08:23:16.913Z,62.74
2019-01-03T08:24:12.633Z,63.41
2019-01-03T08:25:07.343Z,63.09
2019-01-03T08:26:54.062Z,62.95
2019-01-03T08:27:42.965Z,63.20
2019-01-03T08:28:40.827Z,62.94
2019-01-03T08:29:29.584Z,62.93
2019-01-03T08:30:17.331Z,63.09
2019-01-03T08:31:07.011Z,62.94
2019-01-03T08:31:55.826Z,63.07
2019-01-03T08:33:45.358Z,62.87
2019-01-03T08:34:37.162Z,62.41
2019-01-03T08:35:24.992Z,62.13
2019-01-03T08:36:18.896Z,62.23
2019-01-03T08:37:06.607Z,62.18
2019-01-03T08:37:55.462Z,62.30
2019-01-03T08:38:44.354Z,62.05
2019-01-03T08:39:37.058Z,62.12
2019-01-03T08:40:56.198Z,62.02
2019-01-03T08:42:45.656Z,61.89
2019-01-03T08:45:41.305Z,62.09
2019-01-03T08:46:33.943Z,61.97
2019-01-03T08:48:25.480Z,62.34
2019-01-03T08:49:47.370Z,62.06
2019-01-03T08:51:34.745Z,62.15
2019-01-03T08:52:23.599Z,62.44
2019-01-03T08:55:17.012Z,62.13
2019-01-03T08:56:05.941Z,62.20
2019-01-03T08:57:01.640Z,62.18
2019-01-03T08:57:50.478Z,62.13
2019-01-03T08:58:39.333Z,62.32
2019-01-03T08:59:39.121Z,61.98
2019-01-03T09:02:36.508Z,62.14
2019-01-03T09:03:25.441Z,61.66
2019-01-03T09:06:22.426Z,61.58
2019-01-03T09:08:09.876Z,61.99
2019-01-03T09:08:58.585Z,61.71
2019-01-03T09:10:45.943Z,61.93
2019-01-03T09:11:35.711Z,61.64
2019-01-03T09:12:25.184Z,61.72
2019-01-03T09:13:13.950Z,61.85
2019-01-03T09:16:05.330Z,61.66
2019-01-03T09:18:59.823Z,60.62
2019-01-03T09:21:54.105Z,60.78
2019-01-03T09:22:43.824Z,60.82
2019-01-03T09:23:37.383Z,60.86
2019-01-03T09:24:27.974Z,61.01
2019-01-03T09:25:17.372Z,60.81
2019-01-03T09:26:06.342Z,60.71
2019-01-03T09:27:31.469Z,60.58
2019-01-03T09:28:20.378Z,60.30
2019-01-03T09:31:13.047Z,60.46
2019-01-03T09:32:17.845Z,60.03
2019-01-03T09:33:06.667Z,59.87
2019-01-03T09:33:55.615Z,59.74
2019-01-03T09:34:48.275Z,59.97
2019-01-03T09:35:36.932Z,60.01
2019-01-03T09:36:42.477Z,59.71
2019-01-03T09:37:35.306Z,59.97
2019-01-03T09:38:29.920Z,59.89
2019-01-03T09:39:37.897Z,59.31
2019-01-03T09:40:30.567Z,59.53
2019-01-03T09:41:27.275Z,59.40
2019-01-03T09:44:20.268Z,59.52
2019-01-03T09:45:04.010Z,59.15
2019-01-03T09:45:47.692Z,59.06
2019-01-03T09:46:31.287Z,59.30
2019-01-03T09:47:14.943Z,59.06
2019-01-03T09:47:58.679Z,58.77
2019-01-03T09:48:42.285Z,58.05
2019-01-03T09:49:25.958Z,58.44
2019-01-03T09:50:09.587Z,57.86
2019-01-03T09:50:53.226Z,57.81
2019-01-03T09:51:36.873Z,57.67
2019-01-03T09:52:20.530Z,57.65
2019-01-03T09:53:04.228Z,57.60
2019-01-03T09:53:47.971Z,57.07
2019-01-03T09:54:31.621Z,56.93
2019-01-03T09:55:15.254Z,56.95
2019-01-03T09:55:58.899Z,56.98
2019-01-03T09:56:42.617Z,56.78
2019-01-03T09:57:26.270Z,56.63
2019-01-03T09:58:10.016Z,56.74
2019-01-03T09:58:53.659Z,56.87
2019-01-03T09:59:37.349Z,56.99
2019-01-03T10:00:21.000Z,56.62
2019-01-03T10:01:04.681Z,56.38
2019-01-03T10:01:48.434Z,56.38
2019-01-03T10:02:32.084Z,56.32
2019-01-03T10:03:15.719Z,56.19
2019-01-03T10:03:59.393Z,56.28
2019-01-03T10:04:43.100Z,56.39
2019-01-03T10:05:26.748Z,56.21
2019-01-03T10:06:10.349Z,56.06
2019-01-03T10:06:54.020Z,56.11
2019-01-03T10:07:37.679Z,55.86
2019-01-03T10:08:21.297Z,56.05
2019-01-03T10:09:06.310Z,56.21
2019-01-03T10:09:49.926Z,55.67
2019-01-03T10:10:33.592Z,55.79
2019-01-03T10:11:17.252Z,56.09
2019-01-03T10:12:00.855Z,55.62
2019-01-03T10:12:44.597Z,55.87
2019-01-03T10:13:28.188Z,55.67
2019-01-03T10:14:11.766Z,55.79
2019-01-03T10:14:55.384Z,55.79
2019-01-03T10:15:38.946Z,55.64
2019-01-03T10:16:22.645Z,55.21
2019-01-03T10:17:06.300Z,55.89
2019-01-03T10:17:49.953Z,55.86
2019-01-03T10:18:33.549Z,55.94
2019-01-03T10:19:17.213Z,56.16
2019-01-03T10:20:00.877Z,55.74
2019-01-03T10:20:45.688Z,55.96
2019-01-03T10:21:28.196Z,55.87
2019-01-03T10:22:11.755Z,55.97
2019-01-03T10:22:55.426Z,55.81
2019-01-03T10:23:39.015Z,55.63
2019-01-03T10:24:22.608Z,55.82
2019-01-03T10:25:06.391Z,55.74
2019-01-03T10:25:50.290Z,55.58
2019-01-03T10:26:34.019Z,55.28
2019-01-03T10:27:17.682Z,55.38
2019-01-03T10:28:01.304Z,55.76
2019-01-03T10:28:44.915Z,55.43
2019-01-03T10:29:28.637Z,55.46
2019-01-03T10:30:12.278Z,55.40
2019-01-03T10:30:55.897Z,55.27
2019-01-03T10:31:39.484Z,55.03
2019-01-03T10:32:23.125Z,55.35
2019-01-03T10:33:06.755Z,55.47
2019-01-03T10:33:50.405Z,55.82
2019-01-03T10:34:34.213Z,55.82
2019-01-03T10:35:17.858Z,55.86
2019-01-03T10:36:01.505Z,55.55
2019-01-03T10:36:45.153Z,56.04
2019-01-03T10:37:28.722Z,56.50
2019-01-03T10:38:12.310Z,56.99
2019-01-03T10:38:55.922Z,56.55
2019-01-03T10:39:39.536Z,56.63
2019-01-03T10:40:23.120Z,56.17
2019-01-03T10:41:06.689Z,55.82
2019-01-03T10:41:50.362Z,56.06
2019-01-03T10:42:34.025Z,55.93
2019-01-03T10:43:17.621Z,56.14
2019-01-03T10:44:01.244Z,55.79
2019-01-03T10:44:44.875Z,55.75
2019-01-03T10:45:28.551Z,55.84
2019-01-03T10:46:12.244Z,55.37
2019-01-03T10:46:55.781Z,55.98
2019-01-03T10:47:39.465Z,55.84
2019-01-03T10:48:23.089Z,55.48
2019-01-03T10:49:06.685Z,55.50
2019-01-03T10:49:50.289Z,55.47
2019-01-03T10:50:33.915Z,56.01
2019-01-03T10:51:17.537Z,55.46
2019-01-03T10:52:01.210Z,55.59
2019-01-03T10:52:44.818Z,55.18
2019-01-03T10:53:28.392Z,55.25
2019-01-03T10:54:12.057Z,55.13
2019-01-03T10:54:55.677Z,55.40
2019-01-03T10:55:39.452Z,55.35
2019-01-03T10:56:23.072Z,55.29
2019-01-03T10:57:06.665Z,55.24
2019-01-03T10:57:50.248Z,55.19
2019-01-03T10:58:33.828Z,55.11
2019-01-03T10:59:17.432Z,55.24
2019-01-03T11:00:01.111Z,55.43
2019-01-03T11:00:44.716Z,55.38
2019-01-03T11:01:28.368Z,55.01
2019-01-03T11:02:11.999Z,54.86
2019-01-03T11:02:55.612Z,54.72
2019-01-03T11:03:39.193Z,54.43
2019-01-03T11:04:22.860Z,54.67
2019-01-03T11:05:06.539Z,54.52
2019-01-03T11:05:50.196Z,54.64
2019-01-03T11:06:33.806Z,54.89
2019-01-03T11:07:17.446Z,54.70
2019-01-03T11:08:01.123Z,54.45
2019-01-03T11:08:44.734Z,54.23
2019-01-03T11:09:28.317Z,54.09
2019-01-03T11:10:12.001Z,54.13
2019-01-03T11:10:55.562Z,54.00
2019-01-03T11:11:39.129Z,53.77
2019-01-03T11:12:22.735Z,54.18
2019-01-03T11:13:06.393Z,54.21
2019-01-03T11:13:50.350Z,54.10
2019-01-03T11:14:33.921Z,53.81
2019-01-03T11:15:17.465Z,54.62
2019-01-03T11:16:01.058Z,53.57
2019-01-03T11:16:44.650Z,53.64
2019-01-03T11:17:28.325Z,54.02
2019-01-03T11:18:11.977Z,54.17
2019-01-03T11:18:55.555Z,54.03
2019-01-03T11:19:39.102Z,53.59
2019-01-03T11:20:22.855Z,54.13
2019-01-03T11:21:06.441Z,54.22
2019-01-03T11:21:50.028Z,54.33
2019-01-03T11:22:33.640Z,54.71
2019-01-03T11:23:17.201Z,54.67
2019-01-03T11:24:00.886Z,54.56
2019-01-03T11:24:44.642Z,54.50
2019-01-03T11:25:28.296Z,54.28
2019-01-03T11:26:11.924Z,54.03
2019-01-03T11:26:55.508Z,54.17
2019-01-03T11:27:39.116Z,53.98
2019-01-03T11:28:22.683Z,53.42
2019-01-03T11:29:06.279Z,54.35
2019-01-03T11:29:49.908Z,54.22
2019-01-03T11:30:33.542Z,54.12
2019-01-03T11:31:17.142Z,54.07
2019-01-03T11:32:00.776Z,54.50
2019-01-03T11:32:44.387Z,54.58
2019-01-03T11:33:28.016Z,54.29
2019-01-03T11:34:11.677Z,54.30
2019-01-03T11:34:55.302Z,54.26
2019-01-03T11:35:38.896Z,54.28
2019-01-03T11:36:22.499Z,54.04
2019-01-03T11:37:06.103Z,53.74
2019-01-03T11:37:49.738Z,54.31
2019-01-03T11:38:33.367Z,53.56
2019-01-03T11:39:16.997Z,54.13
2019-01-03T11:40:00.628Z,54.17
2019-01-03T11:40:44.244Z,54.05
2019-01-03T11:41:27.929Z,53.88
2019-01-03T11:42:11.502Z,54.04
2019-01-03T11:42:55.131Z,54.20
2019-01-03T11:43:38.979Z,54.21
2019-01-03T11:44:23.064Z,54.31
2019-01-03T11:45:06.897Z,54.32
2019-01-03T11:45:50.514Z,54.20
2019-01-03T11:46:34.135Z,54.50
2019-01-03T11:47:17.741Z,54.43
2019-01-03T11:48:01.436Z,54.68
2019-01-03T11:48:45.057Z,54.83
2019-01-03T11:49:28.789Z,54.84
2019-01-03T11:50:12.492Z,54.75
2019-01-03T11:50:56.069Z,54.66
2019-01-03T11:51:39.692Z,54.91
2019-01-03T11:52:26.035Z,54.92
2019-01-03T11:53:09.677Z,54.47
2019-01-03T11:53:53.257Z,54.49
2019-01-03T11:54:36.829Z,54.33
2019-01-03T11:55:20.547Z,54.39
2019-01-03T11:56:04.171Z,54.35
2019-01-03T11:56:47.782Z,54.11
2019-01-03T11:57:31.398Z,53.89
2019-01-03T11:58:14.989Z,53.99
2019-01-03T11:58:58.680Z,54.04
2019-01-03T11:59:42.262Z,53.93
2019-01-03T12:00:25.847Z,53.79
2019-01-03T12:01:09.451Z,53.57
2019-01-03T12:01:54.203Z,53.76
2019-01-03T12:02:37.876Z,53.51
2019-01-03T12:03:21.512Z,53.58
2019-01-03T12:04:05.179Z,53.30
2019-01-03T12:04:48.779Z,53.35
2019-01-03T12:05:32.415Z,53.36
2019-01-03T12:06:16.089Z,53.54
2019-01-03T12:06:59.708Z,53.33
2019-01-03T12:07:43.302Z,53.51
2019-01-03T12:08:26.913Z,53.00
2019-01-03T12:09:10.566Z,53.39
2019-01-03T12:09:54.300Z,53.41
2019-01-03T12:10:37.915Z,53.39
2019-01-03T12:11:21.500Z,53.50
2019-01-03T12:12:05.142Z,53.34
2019-01-03T12:12:48.740Z,53.60
2019-01-03T12:13:33.724Z,53.52
2019-01-03T12:14:18.262Z,54.09
2019-01-03T12:15:02.017Z,53.88
2019-01-03T12:15:45.620Z,53.79
2019-01-03T12:16:29.203Z,53.62
2019-01-03T12:17:12.815Z,54.11
2019-01-03T12:17:56.412Z,54.11
2019-01-03T12:18:40.114Z,53.97
2019-01-03T12:19:23.702Z,53.96
2019-01-03T12:20:07.489Z,54.31
2019-01-03T12:20:51.122Z,53.85
2019-01-03T12:21:34.784Z,53.54
2019-01-03T12:22:18.408Z,53.92
2019-01-03T12:23:02.075Z,54.01
2019-01-03T12:23:46.441Z,53.91
2019-01-03T12:24:30.687Z,54.16
2019-01-03T12:25:13.786Z,53.77
2019-01-03T12:25:57.384Z,53.83
2019-01-03T12:26:41.011Z,53.86
2019-01-03T12:27:24.656Z,53.85
2019-01-03T12:28:08.283Z,53.90
2019-01-03T12:28:51.911Z,53.71
2019-01-03T12:29:35.525Z,53.92
2019-01-03T12:30:19.138Z,53.77
2019-01-03T12:31:02.772Z,53.97
2019-01-03T12:31:46.424Z,53.94
2019-01-03T12:32:30.017Z,54.04
2019-01-03T12:33:13.665Z,53.95
2019-01-03T12:33:57.405Z,54.06
2019-01-03T12:34:41.038Z,54.34
2019-01-03T12:35:24.692Z,54.24
2019-01-03T12:36:08.298Z,54.28
2019-01-03T12:36:51.874Z,54.31
2019-01-03T12:37:35.511Z,54.13
2019-01-03T12:38:19.213Z,54.26
2019-01-03T12:39:02.911Z,54.15
2019-01-03T12:39:47.666Z,54.13
2019-01-03T12:40:31.364Z,54.49
2019-01-03T12:42:41.997Z,54.38
2019-01-03T12:43:26.558Z,54.24
2019-01-03T12:44:10.217Z,54.45
2019-01-03T12:44:53.797Z,54.46
2019-01-03T12:45:37.447Z,54.63
2019-01-03T12:46:20.997Z,54.86
2019-01-03T12:47:04.552Z,55.10
2019-01-03T12:47:48.651Z,54.82
2019-01-03T12:48:32.244Z,54.97
2019-01-03T12:49:15.879Z,54.92
2019-01-03T12:49:59.488Z,54.93
2019-01-03T12:50:43.102Z,55.08
2019-01-03T12:51:26.688Z,55.00
2019-01-03T12:52:10.333Z,55.20
2019-01-03T12:52:53.949Z,55.18
2019-01-03T12:53:37.557Z,55.63
2019-01-03T12:54:21.156Z,55.12
2019-01-03T12:55:05.046Z,55.16
2019-01-03T12:55:48.770Z,55.21
2019-01-03T12:56:32.398Z,55.18
2019-01-03T12:57:16.003Z,55.09
2019-01-03T12:57:59.572Z,55.34
2019-01-03T12:58:43.223Z,55.60
2019-01-03T12:59:26.836Z,55.42
2019-01-03T13:00:12.699Z,55.52
2019-01-03T13:00:56.374Z,55.60
2019-01-03T13:01:40.015Z,55.80
2019-01-03T13:02:23.650Z,55.63
2019-01-03T13:03:07.239Z,55.69
2019-01-03T13:03:50.831Z,55.71
2019-01-03T13:04:34.442Z,55.93
2019-01-03T13:05:19.024Z,56.06
2019-01-03T13:06:02.675Z,56.18
2019-01-03T13:06:46.361Z,56.15
2019-01-03T13:07:29.900Z,56.41
2019-01-03T13:08:13.535Z,56.46
2019-01-03T13:08:57.149Z,56.72
2019-01-03T13:09:40.739Z,56.71
2019-01-03T13:10:24.398Z,56.70
2019-01-03T13:11:08.082Z,56.93
2019-01-03T13:11:51.696Z,56.61
2019-01-03T13:12:35.334Z,56.83
2019-01-03T13:13:18.966Z,56.91
2019-01-03T13:14:02.589Z,56.49
2019-01-03T13:14:46.200Z,56.57
2019-01-03T13:15:29.856Z,56.51
2019-01-03T13:16:13.562Z,56.68
2019-01-03T13:16:57.166Z,56.70
2019-01-03T13:17:40.876Z,56.46
2019-01-03T13:18:24.502Z,57.10
2019-01-03T13:19:08.279Z,56.60
2019-01-03T13:19:52.248Z,56.54
2019-01-03T13:20:35.940Z,56.96
2019-01-03T13:21:19.606Z,56.86
2019-01-03T13:22:03.190Z,57.00
2019-01-03T13:22:46.834Z,57.01
2019-01-03T13:23:30.430Z,57.26
2019-01-03T13:24:14.021Z,57.09
2019-01-03T13:24:57.650Z,56.91
2019-01-03T13:25:41.289Z,56.95
2019-01-03T13:26:24.920Z,56.96
2019-01-03T13:27:08.491Z,56.73
2019-01-03T13:27:52.112Z,57.16
2019-01-03T13:28:35.702Z,57.04
2019-01-03T13:29:19.398Z,56.61
2019-01-03T13:30:02.965Z,56.86
2019-01-03T13:30:46.544Z,57.20